createdAt,value
2018-02-13T00:00:53.053Z,95.83
2018-02-13T00:01:53.062Z,96.12
2018-02-13T00:02:53.070Z,95.83
2018-02-13T00:03:53.081Z,95.93
2018-02-13T00:04:53.090Z,95.83
2018-02-13T00:05:53.118Z,96.12
2018-02-13T00:06:53.112Z,96.02
2018-02-13T00:07:53.218Z,95.83
2018-02-13T00:08:53.130Z,95.64
2018-02-13T00:09:53.139Z,95.55
2018-02-13T00:10:53.148Z,95.36
2018-02-13T00:11:53.158Z,96.21
2018-02-13T00:12:53.168Z,95.64
2018-02-13T00:13:53.177Z,96.02
2018-02-13T00:14:53.185Z,95.55
2018-02-13T00:15:53.295Z,95.36
2018-02-13T00:16:53.205Z,95.17
2018-02-13T00:17:53.215Z,95.26
2018-02-13T00:18:53.224Z,95.36
2018-02-13T00:19:53.237Z,95.36
2018-02-13T00:20:53.244Z,95.36
2018-02-13T00:21:53.354Z,95.36
2018-02-13T00:22:53.264Z,95.45
2018-02-13T00:23:53.272Z,95.55
2018-02-13T00:24:53.283Z,95.07
2018-02-13T00:25:53.293Z,94.60
2018-02-13T00:26:53.301Z,94.89
2018-02-13T00:27:53.312Z,94.79
2018-02-13T00:28:53.321Z,94.70
2018-02-13T00:29:53.332Z,94.98
2018-02-13T00:30:53.340Z,94.98
2018-02-13T00:31:53.350Z,94.42
2018-02-13T00:32:53.412Z,94.70
2018-02-13T00:33:53.370Z,94.60
2018-02-13T00:34:53.379Z,94.13
2018-02-13T00:35:53.389Z,94.23
2018-02-13T00:36:53.397Z,94.51
2018-02-13T00:37:53.409Z,94.42
2018-02-13T00:38:53.418Z,94.13
2018-02-13T00:39:53.426Z,94.51
2018-02-13T00:40:53.437Z,94.51
2018-02-13T00:41:53.446Z,94.51
2018-02-13T00:42:53.455Z,94.51
2018-02-13T00:43:53.466Z,94.60
2018-02-13T00:44:53.475Z,94.60
2018-02-13T00:45:53.484Z,94.51
2018-02-13T00:46:53.493Z,94.98
2018-02-13T00:47:53.502Z,94.13
2018-02-13T00:48:53.513Z,94.32
2018-02-13T00:49:53.524Z,94.13
2018-02-13T00:50:53.531Z,94.04
2018-02-13T00:51:53.641Z,94.32
2018-02-13T00:52:53.551Z,94.13
2018-02-13T00:53:53.560Z,94.51
2018-02-13T00:54:53.569Z,94.42
2018-02-13T00:55:53.579Z,94.51
2018-02-13T00:56:53.589Z,94.51
2018-02-13T00:57:53.598Z,94.23
2018-02-13T00:58:53.608Z,94.04
2018-02-13T00:59:53.617Z,94.13
2018-02-13T01:00:53.727Z,94.51
2018-02-13T01:01:53.638Z,94.60
2018-02-13T01:02:53.645Z,94.51
2018-02-13T01:03:53.655Z,94.51
2018-02-13T01:04:53.664Z,93.94
2018-02-13T01:05:53.675Z,93.66
2018-02-13T01:06:53.683Z,93.56
2018-02-13T01:07:53.692Z,93.75
2018-02-13T01:08:53.703Z,93.75
2018-02-13T01:09:53.712Z,93.85
2018-02-13T01:10:53.723Z,93.94
2018-02-13T01:11:53.832Z,93.47
2018-02-13T01:12:53.739Z,93.75
2018-02-13T01:13:53.749Z,93.28
2018-02-13T01:14:53.759Z,93.94
2018-02-13T01:15:53.770Z,93.75
2018-02-13T01:16:53.778Z,93.94
2018-02-13T01:17:53.788Z,93.47
2018-02-13T01:18:53.796Z,93.94
2018-02-13T01:19:53.806Z,93.75
2018-02-13T01:20:53.816Z,93.47
2018-02-13T01:21:53.826Z,93.75
2018-02-13T01:22:53.834Z,93.75
2018-02-13T01:23:53.844Z,93.56
2018-02-13T01:24:53.855Z,93.47
2018-02-13T01:25:53.864Z,93.75
2018-02-13T01:26:53.872Z,93.47
2018-02-13T01:27:53.882Z,93.28
2018-02-13T01:28:53.892Z,93.47
2018-02-13T01:29:53.900Z,93.37
2018-02-13T01:30:53.911Z,93.47
2018-02-13T01:31:53.919Z,93.47
2018-02-13T01:32:53.929Z,93.56
2018-02-13T01:33:53.938Z,93.56
2018-02-13T01:34:53.946Z,93.56
2018-02-13T01:35:53.957Z,93.66
2018-02-13T01:36:53.967Z,93.28
2018-02-13T01:37:53.976Z,93.51
2018-02-13T01:38:53.986Z,93.04
2018-02-13T01:39:53.995Z,93.66
2018-02-13T01:40:54.005Z,93.37
2018-02-13T01:41:54.014Z,92.80
2018-02-13T01:42:54.024Z,92.99
2018-02-13T01:43:54.033Z,92.76
2018-02-13T01:44:54.048Z,92.76
2018-02-13T01:45:54.052Z,93.04
2018-02-13T01:46:54.061Z,92.76
2018-02-13T01:47:54.070Z,92.76
2018-02-13T01:48:54.080Z,93.32
2018-02-13T01:49:54.090Z,93.04
2018-02-13T01:50:54.097Z,92.94
2018-02-13T01:51:54.107Z,92.76
2018-02-13T01:52:54.117Z,93.23
2018-02-13T01:53:54.126Z,92.47
2018-02-13T01:54:54.135Z,92.61
2018-02-13T01:55:54.144Z,92.66
2018-02-13T01:56:54.154Z,92.76
2018-02-13T01:57:54.163Z,92.85
2018-02-13T01:58:54.172Z,92.94
2018-02-13T01:59:54.182Z,92.57
2018-02-13T02:00:54.191Z,92.76
2018-02-13T02:01:54.201Z,92.76
2018-02-13T02:02:54.213Z,92.85
2018-02-13T02:03:54.221Z,92.76
2018-02-13T02:04:54.229Z,92.66
2018-02-13T02:05:54.292Z,92.94
2018-02-13T02:06:54.246Z,92.38
2018-02-13T02:07:54.256Z,92.76
2018-02-13T02:08:54.266Z,93.61
2018-02-13T02:09:54.275Z,93.42
2018-02-13T02:10:54.284Z,93.32
2018-02-13T02:11:54.294Z,93.42
2018-02-13T02:12:54.304Z,93.23
2018-02-13T02:13:54.313Z,93.32
2018-02-13T02:14:54.476Z,93.13
2018-02-13T02:15:54.331Z,93.70
2018-02-13T02:16:54.339Z,93.32
2018-02-13T02:17:54.349Z,93.23
2018-02-13T02:18:54.359Z,93.32
2018-02-13T02:19:54.368Z,93.61
2018-02-13T02:20:54.378Z,93.61
2018-02-13T02:21:54.387Z,93.89
2018-02-13T02:22:54.396Z,93.80
2018-02-13T02:23:54.406Z,93.99
2018-02-13T02:24:54.414Z,93.89
2018-02-13T02:25:54.423Z,94.18
2018-02-13T02:26:54.432Z,93.99
2018-02-13T02:27:54.442Z,93.80
2018-02-13T02:28:54.453Z,93.80
2018-02-13T02:29:54.462Z,94.18
2018-02-13T02:30:54.470Z,94.46
2018-02-13T02:31:54.479Z,93.80
2018-02-13T02:32:54.490Z,93.42
2018-02-13T02:33:54.500Z,93.42
2018-02-13T02:34:54.507Z,93.42
2018-02-13T02:35:54.517Z,93.42
2018-02-13T02:36:54.526Z,93.61
2018-02-13T02:37:54.536Z,93.42
2018-02-13T02:38:54.546Z,93.42
2018-02-13T02:39:54.554Z,93.42
2018-02-13T02:40:54.563Z,93.42
2018-02-13T02:41:54.572Z,93.89
2018-02-13T02:42:54.582Z,93.42
2018-02-13T02:43:54.590Z,93.70
2018-02-13T02:44:54.602Z,93.32
2018-02-13T02:45:54.709Z,93.42
2018-02-13T02:46:54.619Z,93.23
2018-02-13T02:47:54.628Z,93.23
2018-02-13T02:48:54.636Z,93.32
2018-02-13T02:49:54.646Z,93.23
2018-02-13T02:50:54.657Z,93.32
2018-02-13T02:51:54.665Z,93.51
2018-02-13T02:52:54.675Z,93.23
2018-02-13T02:53:54.685Z,93.42
2018-02-13T02:54:54.694Z,93.61
2018-02-13T02:55:54.703Z,93.23
2018-02-13T02:56:54.712Z,93.42
2018-02-13T02:57:54.722Z,93.23
2018-02-13T02:58:54.731Z,93.23
2018-02-13T02:59:54.741Z,93.61
2018-02-13T03:00:54.756Z,93.70
2018-02-13T03:01:54.759Z,93.42
2018-02-13T03:02:54.868Z,93.32
2018-02-13T03:03:54.778Z,93.51
2018-02-13T03:04:54.790Z,93.23
2018-02-13T03:05:54.795Z,93.61
2018-02-13T03:06:54.905Z,93.32
2018-02-13T03:07:54.814Z,92.85
2018-02-13T03:08:54.823Z,92.76
2018-02-13T03:09:54.832Z,92.85
2018-02-13T03:10:54.841Z,92.85
2018-02-13T03:11:54.950Z,92.85
2018-02-13T03:12:54.860Z,92.66
2018-02-13T03:13:54.871Z,92.76
2018-02-13T03:14:54.877Z,93.13
2018-02-13T03:15:54.887Z,92.85
2018-02-13T03:16:54.941Z,92.38
2018-02-13T03:17:54.906Z,92.76
2018-02-13T03:18:54.914Z,92.76
2018-02-13T03:19:54.925Z,92.85
2018-02-13T03:20:54.934Z,93.04
2018-02-13T03:21:54.943Z,92.76
2018-02-13T03:22:54.952Z,92.47
2018-02-13T03:23:54.963Z,92.29
2018-02-13T03:24:54.970Z,92.29
2018-02-13T03:25:54.981Z,92.29
2018-02-13T03:26:54.989Z,92.66
2018-02-13T03:27:55.001Z,92.94
2018-02-13T03:28:55.009Z,92.38
2018-02-13T03:29:55.019Z,92.29
2018-02-13T03:30:55.027Z,92.66
2018-02-13T03:31:55.136Z,92.76
2018-02-13T03:32:55.046Z,91.96
2018-02-13T03:33:55.055Z,91.86
2018-02-13T03:34:55.063Z,92.10
2018-02-13T03:35:55.073Z,92.52
2018-02-13T03:36:55.083Z,92.94
2018-02-13T03:37:55.092Z,92.66
2018-02-13T03:38:55.102Z,92.57
2018-02-13T03:39:55.111Z,92.80
2018-02-13T03:40:55.121Z,92.66
2018-02-13T03:41:55.131Z,92.57
2018-02-13T03:42:55.138Z,92.52
2018-02-13T03:43:55.148Z,92.14
2018-02-13T03:44:55.158Z,92.19
2018-02-13T03:45:55.167Z,92.43
2018-02-13T03:46:55.177Z,92.33
2018-02-13T03:47:55.187Z,92.43
2018-02-13T03:48:55.195Z,92.24
2018-02-13T03:49:55.204Z,91.86
2018-02-13T03:50:55.315Z,91.67
2018-02-13T03:51:55.226Z,91.77
2018-02-13T03:52:55.234Z,91.39
2018-02-13T03:53:55.244Z,92.05
2018-02-13T03:54:55.252Z,91.58
2018-02-13T03:55:55.261Z,91.29
2018-02-13T03:56:55.273Z,91.39
2018-02-13T03:57:55.280Z,91.01
2018-02-13T03:58:55.291Z,91.29
2018-02-13T03:59:55.298Z,91.67
2018-02-13T04:00:55.310Z,91.48
2018-02-13T04:01:55.319Z,91.10
2018-02-13T04:02:55.328Z,91.58
2018-02-13T04:03:55.336Z,91.39
2018-02-13T04:04:55.348Z,91.86
2018-02-13T04:05:55.357Z,91.67
2018-02-13T04:06:55.369Z,92.33
2018-02-13T04:07:55.375Z,92.24
2018-02-13T04:08:55.386Z,91.96
2018-02-13T04:09:55.395Z,92.24
2018-02-13T04:10:55.404Z,92.43
2018-02-13T04:11:55.413Z,91.96
2018-02-13T04:12:55.423Z,92.33
2018-02-13T04:13:55.433Z,92.05
2018-02-13T04:14:55.441Z,91.96
2018-02-13T04:15:55.451Z,92.14
2018-02-13T04:16:55.463Z,92.90
2018-02-13T04:17:55.471Z,92.61
2018-02-13T04:18:55.481Z,92.90
2018-02-13T04:19:55.492Z,92.52
2018-02-13T04:20:55.500Z,92.14
2018-02-13T04:21:55.509Z,92.24
2018-02-13T04:22:55.521Z,92.05
2018-02-13T04:23:55.630Z,91.29
2018-02-13T04:24:55.539Z,91.39
2018-02-13T04:25:55.547Z,91.86
2018-02-13T04:26:55.557Z,91.39
2018-02-13T04:27:55.566Z,91.20
2018-02-13T04:28:55.577Z,91.39
2018-02-13T04:29:55.688Z,91.58
2018-02-13T04:30:55.600Z,91.39
2018-02-13T04:31:55.607Z,91.67
2018-02-13T04:32:55.618Z,91.39
2018-02-13T04:33:55.626Z,90.82
2018-02-13T04:34:55.636Z,91.20
2018-02-13T04:35:55.643Z,90.91
2018-02-13T04:36:55.657Z,91.01
2018-02-13T04:37:55.665Z,90.91
2018-02-13T04:38:55.675Z,91.10
2018-02-13T04:39:55.685Z,91.39
2018-02-13T04:40:55.693Z,91.48
2018-02-13T04:41:55.704Z,90.91
2018-02-13T04:42:55.709Z,90.91
2018-02-13T04:43:55.721Z,91.48
2018-02-13T04:44:55.731Z,91.39
2018-02-13T04:45:55.741Z,91.39
2018-02-13T04:46:55.749Z,91.20
2018-02-13T04:47:55.758Z,91.20
2018-02-13T04:48:55.769Z,90.91
2018-02-13T04:49:55.779Z,91.34
2018-02-13T04:50:55.888Z,92.29
2018-02-13T04:51:55.797Z,91.81
2018-02-13T04:52:55.809Z,91.34
2018-02-13T04:53:55.817Z,91.81
2018-02-13T04:54:55.825Z,91.62
2018-02-13T04:55:55.833Z,91.43
2018-02-13T04:56:55.844Z,91.77
2018-02-13T04:57:55.853Z,92.10
2018-02-13T04:58:55.861Z,92.38
2018-02-13T04:59:55.871Z,92.00
2018-02-13T05:00:55.881Z,92.19
2018-02-13T05:01:55.891Z,92.66
2018-02-13T05:02:55.906Z,92.38
2018-02-13T05:03:55.910Z,92.47
2018-02-13T05:04:55.921Z,92.66
2018-02-13T05:05:55.930Z,92.66
2018-02-13T05:06:55.938Z,92.19
2018-02-13T05:07:55.947Z,92.10
2018-02-13T05:08:55.962Z,92.47
2018-02-13T05:09:55.966Z,92.57
2018-02-13T05:10:55.975Z,92.66
2018-02-13T05:11:55.984Z,92.19
2018-02-13T05:12:55.994Z,92.66
2018-02-13T05:13:56.004Z,92.38
2018-02-13T05:14:56.014Z,92.38
2018-02-13T05:15:56.022Z,92.29
2018-02-13T05:16:56.133Z,92.29
2018-02-13T05:17:56.041Z,92.57
2018-02-13T05:18:56.049Z,92.57
2018-02-13T05:19:56.059Z,92.76
2018-02-13T05:20:56.069Z,92.85
2018-02-13T05:21:56.080Z,93.42
2018-02-13T05:22:56.087Z,93.80
2018-02-13T05:23:56.098Z,93.23
2018-02-13T05:24:56.111Z,93.23
2018-02-13T05:25:56.114Z,93.13
2018-02-13T05:26:56.175Z,93.51
2018-02-13T05:27:56.133Z,93.42
2018-02-13T05:28:56.144Z,93.23
2018-02-13T05:29:56.154Z,93.51
2018-02-13T05:30:56.171Z,93.42
2018-02-13T05:31:56.172Z,93.23
2018-02-13T05:32:56.182Z,93.51
2018-02-13T05:33:56.192Z,93.51
2018-02-13T05:34:56.300Z,93.42
2018-02-13T05:35:56.208Z,93.42
2018-02-13T05:36:56.221Z,93.51
2018-02-13T05:37:56.229Z,93.32
2018-02-13T05:38:56.237Z,93.51
2018-02-13T05:39:56.245Z,93.51
2018-02-13T05:40:56.256Z,93.89
2018-02-13T05:41:56.266Z,92.76
2018-02-13T05:42:56.274Z,93.32
2018-02-13T05:43:56.284Z,92.57
2018-02-13T05:44:56.292Z,92.76
2018-02-13T05:45:56.302Z,92.38
2018-02-13T05:46:56.311Z,92.57
2018-02-13T05:47:56.335Z,92.66
2018-02-13T05:48:56.332Z,92.47
2018-02-13T05:49:56.339Z,92.19
2018-02-13T05:50:56.386Z,92.29
2018-02-13T05:51:56.358Z,91.81
2018-02-13T05:52:56.368Z,92.29
2018-02-13T05:53:56.378Z,92.29
2018-02-13T05:54:56.385Z,92.66
2018-02-13T05:55:56.396Z,92.38
2018-02-13T05:56:56.405Z,92.38
2018-02-13T05:57:56.413Z,92.66
2018-02-13T05:58:56.423Z,92.38
2018-02-13T05:59:56.433Z,92.47
2018-02-13T06:00:56.442Z,92.47
2018-02-13T06:01:56.552Z,92.29
2018-02-13T06:02:56.459Z,92.94
2018-02-13T06:03:56.469Z,92.66
2018-02-13T06:04:56.477Z,92.85
2018-02-13T06:05:56.489Z,92.94
2018-02-13T06:06:56.548Z,91.72
2018-02-13T06:07:56.506Z,91.81
2018-02-13T06:08:56.615Z,91.81
2018-02-13T06:09:56.525Z,91.34
2018-02-13T06:10:56.532Z,91.62
2018-02-13T06:11:56.543Z,91.91
2018-02-13T06:12:56.553Z,91.91
2018-02-13T06:13:56.562Z,92.00
2018-02-13T06:14:56.576Z,92.29
2018-02-13T06:15:56.579Z,92.00
2018-02-13T06:16:56.695Z,92.19
2018-02-13T06:17:56.598Z,91.91
2018-02-13T06:18:56.609Z,92.10
2018-02-13T06:19:56.622Z,91.34
2018-02-13T06:20:56.627Z,91.81
2018-02-13T06:21:56.636Z,92.29
2018-02-13T06:22:56.795Z,92.19
2018-02-13T06:23:56.654Z,92.19
2018-02-13T06:24:56.764Z,92.00
2018-02-13T06:25:56.773Z,92.19
2018-02-13T06:26:56.682Z,92.29
2018-02-13T06:27:56.699Z,91.81
2018-02-13T06:28:56.697Z,91.62
2018-02-13T06:29:56.703Z,91.72
2018-02-13T06:30:56.712Z,92.00
2018-02-13T06:31:56.821Z,92.38
2018-02-13T06:32:56.831Z,92.19
2018-02-13T06:33:56.741Z,92.57
2018-02-13T06:34:56.749Z,92.29
2018-02-13T06:35:56.757Z,92.29
2018-02-13T06:36:56.767Z,92.19
2018-02-13T06:37:56.777Z,92.19
2018-02-13T06:38:56.787Z,92.10
2018-02-13T06:39:56.896Z,92.38
2018-02-13T06:40:56.806Z,92.38
2018-02-13T06:41:56.818Z,92.38
2018-02-13T06:42:56.824Z,92.57
2018-02-13T06:43:56.834Z,92.19
2018-02-13T06:44:56.843Z,92.29
2018-02-13T06:45:56.852Z,92.38
2018-02-13T06:46:56.861Z,92.00
2018-02-13T06:47:56.871Z,92.38
2018-02-13T06:48:56.881Z,92.29
2018-02-13T06:49:56.890Z,92.47
2018-02-13T06:50:56.898Z,92.19
2018-02-13T06:51:56.907Z,92.66
2018-02-13T06:52:56.918Z,92.38
2018-02-13T06:53:56.927Z,92.94
2018-02-13T06:54:56.933Z,92.38
2018-02-13T06:55:56.944Z,92.29
2018-02-13T06:56:56.955Z,92.66
2018-02-13T06:57:56.964Z,92.38
2018-02-13T06:58:56.975Z,92.94
2018-02-13T06:59:56.983Z,92.19
2018-02-13T07:00:57.042Z,92.76
2018-02-13T07:01:57.001Z,92.85
2018-02-13T07:02:57.009Z,92.29
2018-02-13T07:03:57.020Z,92.57
2018-02-13T07:04:57.029Z,92.38
2018-02-13T07:05:57.039Z,92.19
2018-02-13T07:06:57.048Z,92.38
2018-02-13T07:07:57.057Z,92.38
2018-02-13T07:08:57.067Z,92.47
2018-02-13T07:09:57.081Z,92.38
2018-02-13T07:10:57.086Z,92.47
2018-02-13T07:11:57.092Z,92.47
2018-02-13T07:12:57.108Z,92.38
2018-02-13T07:13:57.115Z,93.13
2018-02-13T07:14:57.122Z,92.38
2018-02-13T07:15:57.132Z,92.19
2018-02-13T07:16:57.142Z,92.10
2018-02-13T07:17:57.151Z,92.10
2018-02-13T07:18:57.159Z,92.10
2018-02-13T07:19:57.169Z,92.29
2018-02-13T07:20:57.179Z,92.76
2018-02-13T07:21:57.190Z,92.57
2018-02-13T07:22:57.197Z,92.76
2018-02-13T07:23:57.207Z,92.10
2018-02-13T07:24:57.318Z,92.38
2018-02-13T07:25:57.227Z,92.57
2018-02-13T07:26:57.234Z,92.76
2018-02-13T07:27:57.244Z,92.57
2018-02-13T07:28:57.254Z,92.47
2018-02-13T07:29:57.264Z,92.94
2018-02-13T07:30:57.265Z,92.57
2018-02-13T07:31:57.277Z,92.57
2018-02-13T07:32:57.280Z,92.47
2018-02-13T07:33:57.391Z,92.66
2018-02-13T07:34:57.298Z,91.91
2018-02-13T07:35:57.320Z,92.94
2018-02-13T07:36:57.318Z,92.94
2018-02-13T07:37:57.328Z,92.38
2018-02-13T07:38:57.335Z,92.47
2018-02-13T07:39:57.346Z,92.19
2018-02-13T07:40:57.456Z,92.57
2018-02-13T07:41:57.378Z,92.47
2018-02-13T07:42:57.389Z,92.19
2018-02-13T07:43:57.385Z,92.10
2018-02-13T07:44:57.395Z,92.19
2018-02-13T07:45:57.405Z,92.00
2018-02-13T07:46:57.524Z,92.19
2018-02-13T07:47:57.432Z,92.00
2018-02-13T07:48:57.971Z,91.72
2018-02-13T07:49:57.440Z,91.62
2018-02-13T07:50:57.461Z,91.62
2018-02-13T07:51:57.460Z,91.34
2018-02-13T07:52:57.468Z,91.81
2018-02-13T07:53:57.488Z,91.53
2018-02-13T07:54:57.599Z,91.43
2018-02-13T07:55:57.500Z,91.53
2018-02-13T07:56:57.507Z,91.91
2018-02-13T07:57:57.528Z,91.53
2018-02-13T07:58:57.524Z,91.24
2018-02-13T07:59:57.536Z,91.15
2018-02-13T08:00:57.543Z,91.20
2018-02-13T08:01:57.556Z,91.29
2018-02-13T08:02:57.662Z,90.72
2018-02-13T08:03:57.573Z,91.29
2018-02-13T08:04:57.583Z,90.82
2018-02-13T08:05:57.592Z,90.63
2018-02-13T08:06:57.602Z,90.53
2018-02-13T08:07:57.711Z,90.53
2018-02-13T08:09:58.328Z,90.91
2018-02-13T08:10:58.555Z,90.16
2018-02-13T08:11:57.649Z,89.97
2018-02-13T08:13:02.164Z,89.97
2018-02-13T08:13:57.668Z,90.34
2018-02-13T08:14:57.790Z,90.25
2018-02-13T08:15:57.691Z,89.97
2018-02-13T08:16:57.710Z,89.78
2018-02-13T08:17:57.711Z,89.40
2018-02-13T08:18:57.823Z,89.02
2018-02-13T08:19:57.729Z,89.59
2018-02-13T08:20:57.739Z,89.40
2018-02-13T08:21:57.747Z,89.40
2018-02-13T08:22:57.755Z,89.02
2018-02-13T08:23:57.765Z,88.83
2018-02-13T08:24:58.163Z,89.31
2018-02-13T08:25:57.785Z,89.21
2018-02-13T08:26:57.794Z,89.21
2018-02-13T08:27:57.815Z,88.45
2018-02-13T08:28:57.814Z,88.83
2018-02-13T08:29:57.828Z,88.74
2018-02-13T08:30:58.188Z,88.64
2018-02-13T08:31:57.843Z,87.98
2018-02-13T08:32:57.854Z,88.17
2018-02-13T08:33:57.877Z,88.07
2018-02-13T08:34:57.974Z,87.98
2018-02-13T08:35:57.883Z,87.98
2018-02-13T08:36:57.904Z,88.26
2018-02-13T08:37:57.911Z,88.07
2018-02-13T08:38:57.908Z,87.88
2018-02-13T08:39:57.922Z,87.88
2018-02-13T08:40:57.929Z,87.98
2018-02-13T08:41:58.040Z,88.12
2018-02-13T08:42:58.060Z,87.46
2018-02-13T08:43:57.959Z,87.55
2018-02-13T08:44:57.971Z,87.17
2018-02-13T08:45:57.988Z,87.08
2018-02-13T08:46:57.986Z,87.36
2018-02-13T08:47:58.009Z,87.08
2018-02-13T08:48:58.007Z,87.46
2018-02-13T08:49:58.033Z,86.41
2018-02-13T08:50:58.028Z,87.27
2018-02-13T08:51:58.038Z,86.60
2018-02-13T08:53:58.059Z,86.60
2018-02-13T08:54:58.078Z,86.32
2018-02-13T08:55:58.090Z,86.32
2018-02-13T08:56:58.188Z,85.75
2018-02-13T08:57:58.102Z,85.85
2018-02-13T08:58:58.108Z,86.51
2018-02-13T08:59:58.118Z,86.22
2018-02-13T09:00:58.129Z,85.75
2018-02-13T09:01:58.139Z,85.85
2018-02-13T09:02:58.147Z,85.85
2018-02-13T09:03:58.158Z,85.19
2018-02-13T09:04:58.171Z,85.38
2018-02-13T09:05:58.178Z,85.38
2018-02-13T09:06:58.188Z,85.00
2018-02-13T09:07:58.209Z,85.85
2018-02-13T09:08:58.208Z,85.09
2018-02-13T09:09:58.220Z,85.19
2018-02-13T09:10:58.240Z,85.19
2018-02-13T09:11:58.241Z,85.09
2018-02-13T09:12:58.249Z,84.61
2018-02-13T09:13:58.260Z,84.71
2018-02-13T09:14:58.269Z,84.61
2018-02-13T09:15:58.280Z,84.75
2018-02-13T09:16:58.292Z,84.38
2018-02-13T09:17:58.303Z,84.00
2018-02-13T09:18:58.313Z,84.28
2018-02-13T09:19:58.321Z,83.90
2018-02-13T09:20:58.332Z,83.33
2018-02-13T09:21:58.343Z,83.33
2018-02-13T09:22:58.352Z,83.71
2018-02-13T09:23:58.363Z,83.43
2018-02-13T09:24:58.373Z,83.24
2018-02-13T09:25:58.385Z,83.43
2018-02-13T09:26:58.394Z,83.05
2018-02-13T09:27:58.405Z,82.76
2018-02-13T09:28:58.416Z,82.95
2018-02-13T09:29:58.441Z,82.95
2018-02-13T09:30:58.435Z,82.29
2018-02-13T09:31:58.447Z,82.39
2018-02-13T09:32:58.458Z,82.39
2018-02-13T09:33:58.469Z,82.67
2018-02-13T09:34:58.479Z,82.57
2018-02-13T09:35:58.489Z,81.92
2018-02-13T09:36:58.599Z,81.92
2018-02-13T09:37:58.523Z,82.39
2018-02-13T09:38:58.531Z,81.72
2018-02-13T09:39:58.543Z,81.15
2018-02-13T09:40:58.542Z,81.06
2018-02-13T09:41:58.552Z,81.25
2018-02-13T09:42:58.675Z,80.77
2018-02-13T09:43:58.582Z,80.68
2018-02-13T09:44:58.592Z,80.87
2018-02-13T09:45:58.605Z,80.44
2018-02-13T09:46:58.604Z,80.25
2018-02-13T09:47:58.614Z,80.34
2018-02-13T09:48:58.625Z,80.72
2018-02-13T09:49:58.636Z,80.44
2018-02-13T09:50:58.745Z,80.63
2018-02-13T09:51:58.656Z,80.44
2018-02-13T09:52:58.668Z,80.72
2018-02-13T09:53:58.679Z,79.96
2018-02-13T09:54:58.689Z,79.77
2018-02-13T09:55:58.699Z,79.96
2018-02-13T09:56:58.710Z,79.68
2018-02-13T09:57:58.723Z,80.44
2018-02-13T09:58:58.731Z,79.87
2018-02-13T09:59:58.742Z,79.68
2018-02-13T10:00:58.753Z,79.21
2018-02-13T10:01:58.765Z,79.30
2018-02-13T10:02:58.875Z,79.30
2018-02-13T10:03:58.785Z,79.11
2018-02-13T10:04:58.801Z,78.83
2018-02-13T10:05:58.807Z,78.64
2018-02-13T10:06:58.818Z,78.26
2018-02-13T10:07:58.929Z,78.45
2018-02-13T10:08:58.840Z,78.07
2018-02-13T10:09:58.851Z,78.16
2018-02-13T10:10:58.862Z,78.35
2018-02-13T10:11:58.872Z,78.35
2018-02-13T10:12:58.884Z,78.16
2018-02-13T10:13:58.895Z,77.69
2018-02-13T10:14:58.906Z,77.54
2018-02-13T10:15:58.917Z,77.92
2018-02-13T10:16:58.928Z,77.25
2018-02-13T10:17:58.950Z,77.06
2018-02-13T10:18:58.962Z,77.25
2018-02-13T10:19:58.961Z,77.25
2018-02-13T10:20:58.972Z,77.25
2018-02-13T10:21:58.982Z,76.59
2018-02-13T10:22:58.994Z,76.87
2018-02-13T10:23:59.005Z,77.06
2018-02-13T10:24:59.026Z,76.97
2018-02-13T10:25:59.028Z,76.78
2018-02-13T10:26:59.038Z,76.78
2018-02-13T10:27:59.050Z,76.78
2018-02-13T10:28:59.061Z,76.97
2018-02-13T10:29:59.071Z,76.50
2018-02-13T10:30:59.088Z,76.03
2018-02-13T10:31:59.130Z,76.12
2018-02-13T10:32:59.105Z,75.74
2018-02-13T10:33:59.122Z,75.64
2018-02-13T10:34:59.226Z,75.84
2018-02-13T10:35:59.238Z,75.55
2018-02-13T10:36:59.149Z,76.12
2018-02-13T10:37:59.261Z,75.64
2018-02-13T10:38:59.182Z,75.74
2018-02-13T10:39:59.181Z,76.21
2018-02-13T10:40:59.194Z,75.36
2018-02-13T10:41:59.205Z,74.98
2018-02-13T10:42:59.214Z,74.69
2018-02-13T10:43:59.228Z,74.13
2018-02-13T10:44:59.238Z,74.41
2018-02-13T10:45:59.247Z,74.54
2018-02-13T10:46:59.261Z,74.22
2018-02-13T10:47:59.308Z,73.22
2018-02-13T10:48:59.383Z,74.35
2018-02-13T10:49:59.310Z,74.45
2018-02-13T10:50:59.428Z,73.60
2018-02-13T10:51:59.326Z,73.41
2018-02-13T10:52:59.327Z,73.12
2018-02-13T10:53:59.339Z,73.31
2018-02-13T10:54:59.350Z,73.50
2018-02-13T10:55:59.361Z,73.22
2018-02-13T10:56:59.623Z,73.41
2018-02-13T10:57:59.894Z,72.84
2018-02-13T10:58:59.642Z,72.36
2018-02-13T10:59:59.941Z,71.98
2018-02-13T11:00:59.634Z,71.98
2018-02-13T11:02:59.639Z,72.27
2018-02-13T11:03:59.464Z,72.36
2018-02-13T11:04:59.463Z,71.70
2018-02-13T11:05:59.477Z,71.70
2018-02-13T11:06:59.497Z,71.51
2018-02-13T11:07:59.495Z,71.22
2018-02-13T11:08:59.520Z,71.22
2018-02-13T11:09:59.520Z,70.65
2018-02-13T11:10:59.530Z,71.22
2018-02-13T11:11:59.543Z,71.13
2018-02-13T11:12:59.557Z,71.32
2018-02-13T11:13:59.565Z,71.13
2018-02-13T11:14:59.579Z,71.26
2018-02-13T11:15:59.589Z,70.40
2018-02-13T11:16:59.601Z,69.46
2018-02-13T11:17:59.668Z,69.46
2018-02-13T11:18:59.634Z,69.80
2018-02-13T11:19:59.635Z,70.12
2018-02-13T11:20:59.646Z,69.74
2018-02-13T11:21:59.658Z,69.65
2018-02-13T11:22:59.681Z,69.36
2018-02-13T11:23:59.693Z,68.79
2018-02-13T11:24:59.695Z,68.89
2018-02-13T11:25:59.705Z,69.17
2018-02-13T11:26:59.717Z,68.51
2018-02-13T11:27:59.748Z,68.60
2018-02-13T11:28:59.809Z,69.46
2018-02-13T11:29:59.760Z,68.79
2018-02-13T11:30:59.777Z,69.17
2018-02-13T11:31:59.774Z,68.60
2018-02-13T11:32:59.786Z,68.79
2018-02-13T11:33:59.801Z,68.41
2018-02-13T11:34:59.809Z,68.41
2018-02-13T11:35:59.831Z,68.23
2018-02-13T11:36:59.832Z,68.60
2018-02-13T11:37:59.857Z,68.13
2018-02-13T11:38:59.857Z,67.94
2018-02-13T11:39:59.868Z,68.60
2018-02-13T11:40:59.881Z,68.51
2018-02-13T11:41:59.894Z,68.13
2018-02-13T11:42:59.904Z,67.08
2018-02-13T11:43:59.917Z,66.99
2018-02-13T11:44:59.939Z,66.33
2018-02-13T11:45:59.953Z,65.85
2018-02-13T11:47:00.081Z,65.66
2018-02-13T11:47:59.979Z,65.75
2018-02-13T11:48:59.976Z,65.56
2018-02-13T11:49:59.991Z,65.47
2018-02-13T11:50:59.999Z,65.75
2018-02-13T11:52:00.029Z,66.04
2018-02-13T11:53:00.026Z,66.71
2018-02-13T11:54:00.036Z,67.56
2018-02-13T11:55:00.066Z,67.18
2018-02-13T11:56:00.060Z,67.56
2018-02-13T11:57:00.083Z,67.18
2018-02-13T11:58:00.133Z,66.99
2018-02-13T11:59:00.098Z,67.56
2018-02-13T12:00:00.117Z,67.65
2018-02-13T12:01:00.132Z,67.08
2018-02-13T12:02:00.132Z,67.46
2018-02-13T12:03:00.143Z,66.42
2018-02-13T12:04:00.155Z,66.14
2018-02-13T12:05:00.167Z,66.04
2018-02-13T12:07:00.190Z,65.37
2018-02-13T12:08:00.202Z,65.09
2018-02-13T12:09:00.213Z,63.79
2018-02-13T12:10:00.226Z,64.08
2018-02-13T12:11:00.237Z,63.79
2018-02-13T12:12:00.249Z,63.89
2018-02-13T12:13:00.313Z,62.85
2018-02-13T12:14:00.539Z,62.66
2018-02-13T12:15:00.297Z,62.37
2018-02-13T12:17:00.321Z,61.99
2018-02-13T12:18:00.320Z,62.27
2018-02-13T12:19:00.343Z,62.08
2018-02-13T12:20:00.355Z,62.08
2018-02-13T12:21:00.367Z,62.37
2018-02-13T12:22:00.368Z,61.42
2018-02-13T12:23:00.378Z,60.57
2018-02-13T12:24:00.403Z,60.47
2018-02-13T12:25:00.404Z,59.62
2018-02-13T12:26:00.419Z,60.00
2018-02-13T12:27:00.439Z,59.91
2018-02-13T12:28:00.441Z,60.28
2018-02-13T12:29:00.464Z,60.47
2018-02-13T12:30:00.465Z,60.19
2018-02-13T12:31:00.477Z,59.91
2018-02-13T12:32:00.490Z,60.47
2018-02-13T12:33:00.503Z,60.10
2018-02-13T12:34:00.525Z,59.91
2018-02-13T12:35:00.528Z,59.91
2018-02-13T12:36:00.539Z,59.91
2018-02-13T12:37:00.551Z,59.52
2018-02-13T12:38:00.561Z,59.24
2018-02-13T12:39:00.575Z,58.95
2018-02-13T12:40:00.686Z,59.14
2018-02-13T12:41:00.600Z,59.33
2018-02-13T12:42:00.612Z,59.14
2018-02-13T12:43:00.624Z,59.62
2018-02-13T12:44:00.636Z,59.62
2018-02-13T12:45:00.748Z,59.71
2018-02-13T12:46:00.660Z,60.10
2018-02-13T12:47:00.673Z,59.81
2018-02-13T12:48:00.684Z,59.91
2018-02-13T12:49:00.700Z,59.62
2018-02-13T12:50:00.725Z,59.81
2018-02-13T12:51:00.733Z,59.91
2018-02-13T12:52:00.735Z,60.19
2018-02-13T12:53:00.757Z,60.38
2018-02-13T12:54:00.759Z,60.10
2018-02-13T12:55:00.770Z,60.76
2018-02-13T12:56:00.782Z,60.95
2018-02-13T12:57:00.796Z,59.71
2018-02-13T12:58:00.809Z,59.43